Time;durP1;ratioP1;P1;durP2;ratioP2;P2;SDS_P1;SDS_P2;PMS_P1;PMS_P2;Temp;Humidity;BMP_temperature;BMP_pressure;BME280_temperature;BME280_humidity;BME280_pressure;Samples;Min_cycle;Max_cycle;Signal;HPM_P1;HPM_P2
2024/03/18 00:02:06;;;;;;;7.15;5.32;;;;;;;;;;6253061;22;20456;-91
2024/03/18 00:04:33;;;;;;;9.35;5.07;;;;;;;;;;6253817;22;20506;-93
2024/03/18 00:06:59;;;;;;;8.23;5.18;;;;;;;;;;6253855;22;20466;-92
2024/03/18 00:09:26;;;;;;;6.68;5.28;;;;;;;;;;6253688;22;20020;-92
2024/03/18 00:11:52;;;;;;;7.03;5.35;;;;;;;;;;6253898;22;20023;-92
2024/03/18 00:14:18;;;;;;;7.72;5.35;;;;;;;;;;6253425;22;20015;-93
2024/03/18 00:16:45;;;;;;;9.32;5.60;;;;;;;;;;6253934;22;20023;-93
2024/03/18 00:19:11;;;;;;;9.93;5.32;;;;;;;;;;6253871;22;20027;-92
2024/03/18 00:21:38;;;;;;;7.18;5.75;;;;;;;;;;6254050;22;20075;-92
2024/03/18 00:24:05;;;;;;;8.95;5.30;;;;;;;;;;6254370;22;20027;-92
2024/03/18 00:26:32;;;;;;;10.15;5.40;;;;;;;;;;6268876;22;20034;-93
2024/03/18 00:28:59;;;;;;;7.13;4.90;;;;;;;;;;6278244;22;20080;-93
2024/03/18 00:31:25;;;;;;;10.32;5.32;;;;;;;;;;6257416;22;20016;-93
2024/03/18 00:33:51;;;;;;;6.57;5.13;;;;;;;;;;6253450;22;20030;-93
2024/03/18 00:36:19;;;;;;;8.48;5.68;;;;;;;;;;6253628;22;20031;-92
2024/03/18 00:38:45;;;;;;;8.35;5.50;;;;;;;;;;6253547;22;20019;-93
2024/03/18 00:43:58;;;;;;;7.43;5.20;;;;;;;;;;6278682;22;20024;-93
2024/03/18 00:46:24;;;;;;;8.00;5.47;;;;;;;;;;6253616;22;20050;-92
2024/03/18 00:48:50;;;;;;;5.47;4.93;;;;;;;;;;6253761;22;20020;-92
2024/03/18 00:51:17;;;;;;;6.70;5.32;;;;;;;;;;6253433;22;20019;-92
2024/03/18 00:53:43;;;;;;;6.22;5.45;;;;;;;;;;6253308;22;20023;-93
2024/03/18 00:56:09;;;;;;;6.45;5.85;;;;;;;;;;6253502;22;20019;-93
2024/03/18 00:58:36;;;;;;;5.55;4.97;;;;;;;;;;6253559;22;20471;-93
2024/03/18 01:01:02;;;;;;;10.95;5.63;;;;;;;;;;6253492;22;20016;-93
2024/03/18 01:03:33;;;;;;;7.03;5.32;;;;;;;;;;6253196;22;20023;-93
2024/03/18 01:05:59;;;;;;;8.82;6.10;;;;;;;;;;6253224;22;20318;-93
2024/03/18 01:08:26;;;;;;;10.55;6.13;;;;;;;;;;6252938;22;20480;-93
2024/03/18 01:10:52;;;;;;;11.30;6.78;;;;;;;;;;6253519;22;20020;-93
2024/03/18 01:13:18;;;;;;;10.32;6.07;;;;;;;;;;6251710;22;20015;-93
2024/03/18 01:15:45;;;;;;;7.40;6.07;;;;;;;;;;6252108;22;20529;-93
2024/03/18 01:18:11;;;;;;;7.75;5.82;;;;;;;;;;6251558;22;20016;-94
2024/03/18 01:20:38;;;;;;;8.57;6.10;;;;;;;;;;6251723;22;20047;-94
2024/03/18 01:23:04;;;;;;;8.95;5.45;;;;;;;;;;6251517;22;20352;-93
2024/03/18 01:25:32;;;;;;;9.38;6.38;;;;;;;;;;6251720;22;20020;-93
2024/03/18 01:27:59;;;;;;;8.05;5.95;;;;;;;;;;6251808;22;20020;-93
2024/03/18 01:30:25;;;;;;;7.80;5.50;;;;;;;;;;6251703;22;20020;-93
2024/03/18 01:32:52;;;;;;;9.68;6.07;;;;;;;;;;6251657;22;20016;-93
2024/03/18 01:35:19;;;;;;;9.75;7.15;;;;;;;;;;6252144;22;20027;-93
2024/03/18 01:37:46;;;;;;;7.05;5.72;;;;;;;;;;6251435;22;20023;-93
2024/03/18 01:40:13;;;;;;;7.82;5.75;;;;;;;;;;6252123;22;20020;-94
2024/03/18 01:42:40;;;;;;;10.45;5.80;;;;;;;;;;6262274;22;20020;-93
2024/03/18 01:45:06;;;;;;;7.60;5.78;;;;;;;;;;6268350;22;20019;-93
2024/03/18 01:47:33;;;;;;;9.65;5.30;;;;;;;;;;6251955;22;20027;-93
2024/03/18 01:49:59;;;;;;;6.47;5.40;;;;;;;;;;6251973;22;20065;-93
2024/03/18 01:52:26;;;;;;;8.05;5.55;;;;;;;;;;6251141;22;20024;-93
2024/03/18 01:54:52;;;;;;;11.18;6.03;;;;;;;;;;6251747;22;20027;-93
2024/03/18 01:57:18;;;;;;;6.38;5.40;;;;;;;;;;6251519;22;20020;-93
2024/03/18 01:59:45;;;;;;;6.10;5.25;;;;;;;;;;6251364;22;20024;-92
2024/03/18 02:02:11;;;;;;;8.05;5.18;;;;;;;;;;6251128;22;20061;-93
2024/03/18 02:04:38;;;;;;;7.25;5.07;;;;;;;;;;6251468;22;20023;-93
2024/03/18 02:07:21;;;;;;;6.82;5.47;;;;;;;;;;6250976;22;20024;-93
2024/03/18 02:09:48;;;;;;;;;;;;;;;;;;6252079;22;20019;-93
2024/03/18 02:12:14;;;;;;;11.18;5.45;;;;;;;;;;6251200;22;19915;-93
2024/03/18 02:14:43;;;;;;;6.25;5.38;;;;;;;;;;6251425;22;20020;-93
2024/03/18 02:17:10;;;;;;;7.95;5.18;;;;;;;;;;6251285;22;20020;-93
2024/03/18 02:19:36;;;;;;;8.15;5.40;;;;;;;;;;6251286;22;20074;-93
2024/03/18 02:22:03;;;;;;;6.88;6.18;;;;;;;;;;6251664;22;20379;-92
2024/03/18 02:24:29;;;;;;;10.35;6.38;;;;;;;;;;6250577;22;20019;-93
2024/03/18 02:26:55;;;;;;;9.52;6.22;;;;;;;;;;6251189;22;20102;-93
2024/03/18 02:29:22;;;;;;;8.55;5.80;;;;;;;;;;6251204;22;20023;-94
2024/03/18 02:31:48;;;;;;;9.57;6.05;;;;;;;;;;6251152;22;20046;-93
2024/03/18 02:34:14;;;;;;;9.68;5.93;;;;;;;;;;6251279;22;20020;-93
2024/03/18 02:36:40;;;;;;;10.93;5.70;;;;;;;;;;6251574;22;20027;-94
2024/03/18 02:39:07;;;;;;;8.93;6.07;;;;;;;;;;6250734;22;20020;-94
2024/03/18 02:41:34;;;;;;;8.73;6.30;;;;;;;;;;6251655;22;20027;-94
2024/03/18 02:44:00;;;;;;;7.65;5.63;;;;;;;;;;6250927;22;20073;-92
2024/03/18 02:46:27;;;;;;;9.60;5.80;;;;;;;;;;6251606;22;20352;-94
2024/03/18 02:48:53;;;;;;;8.40;6.40;;;;;;;;;;6251217;22;20022;-94
2024/03/18 02:51:19;;;;;;;8.02;6.28;;;;;;;;;;6251782;22;20054;-94
2024/03/18 02:53:46;;;;;;;9.30;6.20;;;;;;;;;;6251368;22;20460;-94
2024/03/18 02:56:12;;;;;;;7.65;5.43;;;;;;;;;;6252277;22;20020;-94
2024/03/18 02:58:38;;;;;;;9.07;6.50;;;;;;;;;;6272233;22;20038;-91
2024/03/18 03:01:04;;;;;;;11.25;5.97;;;;;;;;;;6267250;22;20026;-94
2024/03/18 03:03:31;;;;;;;8.02;6.10;;;;;;;;;;6250578;22;20391;-94
2024/03/18 03:05:58;;;;;;;8.32;5.72;;;;;;;;;;6251097;22;20023;-94
2024/03/18 03:08:25;;;;;;;8.02;6.22;;;;;;;;;;6251453;22;20352;-94
2024/03/18 03:10:51;;;;;;;8.55;5.97;;;;;;;;;;6251777;22;20022;-94
2024/03/18 03:13:17;;;;;;;10.73;6.60;;;;;;;;;;6251877;22;20020;-94
2024/03/18 03:15:43;;;;;;;9.13;5.93;;;;;;;;;;6251222;22;20019;-94
2024/03/18 03:18:11;;;;;;;9.48;6.00;;;;;;;;;;6251637;22;20019;-94
2024/03/18 03:20:37;;;;;;;12.88;6.43;;;;;;;;;;6251122;22;20456;-94
2024/03/18 03:23:04;;;;;;;12.68;6.65;;;;;;;;;;6250762;22;20023;-94
2024/03/18 03:25:30;;;;;;;10.02;6.70;;;;;;;;;;6251096;22;20026;-95
2024/03/18 03:28:00;;;;;;;10.02;6.70;;;;;;;;;;6250687;22;20020;-94
2024/03/18 03:30:26;;;;;;;15.10;6.90;;;;;;;;;;6251126;22;20015;-94
2024/03/18 03:32:52;;;;;;;10.82;7.15;;;;;;;;;;6250733;22;20073;-93
2024/03/18 03:35:19;;;;;;;11.50;7.53;;;;;;;;;;6250814;22;20020;-94
2024/03/18 03:37:45;;;;;;;9.13;6.47;;;;;;;;;;6250774;22;20079;-95
2024/03/18 03:40:12;;;;;;;20.45;9.90;;;;;;;;;;6250767;22;20016;-95
2024/03/18 03:42:38;;;;;;;16.48;10.32;;;;;;;;;;6250787;22;20028;-95
2024/03/18 03:45:05;;;;;;;15.68;9.63;;;;;;;;;;6250766;22;20440;-95
2024/03/18 03:47:33;;;;;;;15.98;9.73;;;;;;;;;;6251248;22;20456;-95
2024/03/18 03:49:59;;;;;;;13.75;8.07;;;;;;;;;;6251959;22;20020;-95
2024/03/18 03:52:25;;;;;;;13.15;7.30;;;;;;;;;;6252684;22;20016;-95
2024/03/18 03:54:52;;;;;;;9.75;6.97;;;;;;;;;;6228793;22;20020;-96
2024/03/18 03:57:26;;;;;;;8.55;6.38;;;;;;;;;;6280045;22;20020;-95
2024/03/18 04:00:11;;;;;;;9.20;6.28;;;;;;;;;;6282761;22;20083;-96
2024/03/18 04:02:39;;;;;;;10.88;6.95;;;;;;;;;;6285614;22;20042;-96
2024/03/18 04:05:23;;;;;;;9.87;6.80;;;;;;;;;;6285850;22;20405;-96
2024/03/18 04:08:06;;;;;;;10.88;6.82;;;;;;;;;;6284035;22;20452;-96
2024/03/18 04:10:34;;;;;;;9.20;6.07;;;;;;;;;;6284400;22;20023;-96
2024/03/18 04:13:03;;;;;;;13.48;6.78;;;;;;;;;;6270520;22;20019;-96
2024/03/18 04:15:32;;;;;;;15.43;6.72;;;;;;;;;;6277015;22;20055;-96
2024/03/18 04:18:13;;;;;;;10.35;6.97;;;;;;;;;;6258257;22;20016;-96
2024/03/18 04:20:43;;;;;;;10.30;7.18;;;;;;;;;;6231257;22;20023;-96
2024/03/18 04:23:11;;;;;;;12.52;7.40;;;;;;;;;;6254060;22;20019;-96
2024/03/18 04:25:42;;;;;;;11.65;7.10;;;;;;;;;;6253760;22;20020;-96
2024/03/18 04:28:09;;;;;;;14.98;8.10;;;;;;;;;;6254188;22;20347;-96
2024/03/18 04:30:37;;;;;;;12.20;6.47;;;;;;;;;;6279372;22;20015;-96
2024/03/18 04:33:04;;;;;;;12.88;7.18;;;;;;;;;;6253247;22;20024;-96
2024/03/18 04:35:31;;;;;;;8.77;6.63;;;;;;;;;;6258032;22;20026;-96
2024/03/18 04:37:57;;;;;;;8.30;6.68;;;;;;;;;;6253474;22;20031;-96
2024/03/18 04:40:26;;;;;;;10.05;7.22;;;;;;;;;;6254538;22;20022;-96
2024/03/18 04:42:56;;;;;;;12.70;7.47;;;;;;;;;;6278597;22;20026;-96
2024/03/18 04:45:23;;;;;;;13.48;7.80;;;;;;;;;;6277674;22;20020;-96
2024/03/18 04:47:50;;;;;;;14.82;8.10;;;;;;;;;;6252896;22;20042;-96
2024/03/18 04:50:22;;;;;;;13.82;8.82;;;;;;;;;;6253578;22;20015;-95
2024/03/18 04:52:48;;;;;;;13.68;7.97;;;;;;;;;;6253075;22;20020;-96
2024/03/18 04:55:15;;;;;;;9.80;7.35;;;;;;;;;;6252578;22;20024;-95
2024/03/18 04:57:41;;;;;;;10.82;7.45;;;;;;;;;;6252297;22;20330;-96
2024/03/18 05:00:10;;;;;;;11.13;7.38;;;;;;;;;;6252440;22;20032;-96
2024/03/18 05:02:36;;;;;;;14.40;8.23;;;;;;;;;;6253168;22;20024;-95
2024/03/18 05:05:03;;;;;;;10.90;7.68;;;;;;;;;;6252932;22;20020;-96
2024/03/18 05:07:30;;;;;;;11.98;7.32;;;;;;;;;;6254847;22;20020;-95
2024/03/18 05:09:56;;;;;;;10.65;6.95;;;;;;;;;;6253931;22;20016;-96
2024/03/18 05:12:22;;;;;;;7.50;6.60;;;;;;;;;;6255038;22;20364;-96
2024/03/18 05:14:49;;;;;;;11.10;7.63;;;;;;;;;;6251931;22;20020;-96
2024/03/18 05:17:15;;;;;;;13.80;7.43;;;;;;;;;;6252188;22;20019;-95
2024/03/18 05:19:41;;;;;;;9.50;7.07;;;;;;;;;;6252335;22;20016;-95
2024/03/18 05:22:08;;;;;;;9.77;7.35;;;;;;;;;;6252079;22;20026;-95
2024/03/18 05:24:34;;;;;;;12.80;8.48;;;;;;;;;;6252007;22;20020;-96
2024/03/18 05:27:01;;;;;;;13.07;8.20;;;;;;;;;;6254003;22;20019;-95
2024/03/18 05:29:27;;;;;;;12.60;7.80;;;;;;;;;;6276208;22;20075;-91
2024/03/18 05:31:54;;;;;;;15.82;8.35;;;;;;;;;;6260780;22;20026;-95
2024/03/18 05:34:20;;;;;;;16.58;8.80;;;;;;;;;;6252138;22;20016;-96
2024/03/18 05:36:46;;;;;;;15.07;9.20;;;;;;;;;;6253015;22;20020;-93
2024/03/18 05:39:13;;;;;;;19.20;10.82;;;;;;;;;;6251767;22;20016;-95
2024/03/18 05:41:39;;;;;;;24.33;11.93;;;;;;;;;;6251574;22;20020;-95
2024/03/18 05:44:06;;;;;;;17.70;11.60;;;;;;;;;;6252018;22;20019;-95
2024/03/18 05:46:32;;;;;;;13.38;9.88;;;;;;;;;;6251666;22;20015;-94
2024/03/18 05:48:58;;;;;;;12.23;8.50;;;;;;;;;;6251610;22;20027;-94
2024/03/18 05:51:25;;;;;;;14.23;8.68;;;;;;;;;;6252220;22;20022;-95
2024/03/18 05:53:51;;;;;;;16.17;9.48;;;;;;;;;;6252143;22;20019;-94
2024/03/18 05:56:17;;;;;;;14.57;9.38;;;;;;;;;;6251861;22;20023;-95
2024/03/18 05:58:45;;;;;;;16.13;9.10;;;;;;;;;;6251504;22;20037;-95
2024/03/18 06:01:11;;;;;;;18.00;10.07;;;;;;;;;;6251906;22;20031;-95
2024/03/18 06:03:39;;;;;;;17.48;9.98;;;;;;;;;;6251581;22;20024;-93
2024/03/18 06:06:10;;;;;;;17.83;10.75;;;;;;;;;;6251618;22;20024;-95
2024/03/18 06:08:36;;;;;;;21.15;10.57;;;;;;;;;;6252005;22;20023;-96
2024/03/18 06:11:03;;;;;;;23.75;11.10;;;;;;;;;;6252698;22;20027;-95
2024/03/18 06:13:30;;;;;;;28.05;14.25;;;;;;;;;;6251950;22;20016;-96
2024/03/18 06:15:56;;;;;;;36.65;15.35;;;;;;;;;;6252180;22;20019;-95
2024/03/18 06:18:23;;;;;;;25.17;12.98;;;;;;;;;;6251601;22;20015;-95
2024/03/18 06:20:54;;;;;;;22.40;12.70;;;;;;;;;;6251309;22;20020;-95
2024/03/18 06:23:26;;;;;;;25.05;13.65;;;;;;;;;;6251314;22;20065;-95
2024/03/18 06:25:59;;;;;;;28.02;14.95;;;;;;;;;;6252483;22;20023;-95
2024/03/18 06:28:28;;;;;;;41.00;17.67;;;;;;;;;;6251950;22;20031;-95
2024/03/18 06:30:58;;;;;;;35.47;16.85;;;;;;;;;;6252138;22;20020;-95
2024/03/18 06:33:25;;;;;;;36.15;16.50;;;;;;;;;;6251405;22;20031;-95
2024/03/18 06:35:55;;;;;;;34.00;15.20;;;;;;;;;;6277739;22;20023;-95
2024/03/18 06:38:21;;;;;;;25.92;12.55;;;;;;;;;;6276840;22;20019;-95
2024/03/18 06:40:51;;;;;;;32.42;14.13;;;;;;;;;;6251907;22;20019;-96
2024/03/18 06:43:17;;;;;;;35.25;20.08;;;;;;;;;;6258407;22;20031;-95
2024/03/18 06:45:44;;;;;;;35.55;13.27;;;;;;;;;;6272909;22;20090;-95
2024/03/18 06:48:10;;;;;;;23.52;12.55;;;;;;;;;;6251208;22;20030;-96
2024/03/18 06:50:40;;;;;;;37.33;14.75;;;;;;;;;;6251343;22;20023;-94
2024/03/18 06:53:07;;;;;;;21.23;12.38;;;;;;;;;;6251516;22;20020;-95
2024/03/18 06:55:40;;;;;;;23.27;10.70;;;;;;;;;;6277037;22;20467;-94
2024/03/18 06:58:06;;;;;;;26.70;16.02;;;;;;;;;;6251077;22;20042;-93
2024/03/18 07:00:33;;;;;;;14.95;10.18;;;;;;;;;;6251401;22;20015;-93
2024/03/18 07:02:59;;;;;;;16.30;9.38;;;;;;;;;;6251320;22;20024;-92
2024/03/18 07:05:25;;;;;;;19.67;9.13;;;;;;;;;;6251371;22;20346;-93
2024/03/18 07:07:52;;;;;;;19.95;7.28;;;;;;;;;;6251518;22;20092;-93
2024/03/18 07:10:19;;;;;;;20.83;8.30;;;;;;;;;;6250678;22;20530;-93
2024/03/18 07:12:46;;;;;;;10.07;6.30;;;;;;;;;;6251274;22;20019;-93
2024/03/18 07:15:16;;;;;;;11.90;6.40;;;;;;;;;;6246385;23;20031;-93
2024/03/18 07:17:43;;;;;;;13.75;6.25;;;;;;;;;;6221454;23;20388;-92
2024/03/18 07:20:10;;;;;;;11.82;5.88;;;;;;;;;;6220984;23;20388;-93
2024/03/18 07:22:38;;;;;;;9.77;5.78;;;;;;;;;;6220645;23;20066;-92
2024/03/18 07:25:05;;;;;;;8.35;4.72;;;;;;;;;;6220821;23;20028;-92
2024/03/18 07:27:32;;;;;;;7.80;4.32;;;;;;;;;;6220583;23;20069;-93
2024/03/18 07:30:00;;;;;;;7.25;4.68;;;;;;;;;;6245680;23;20237;-92
2024/03/18 07:32:26;;;;;;;7.22;4.22;;;;;;;;;;6220975;23;20074;-93
2024/03/18 07:34:53;;;;;;;8.88;4.13;;;;;;;;;;6246269;23;20433;-93
2024/03/18 07:37:19;;;;;;;7.55;4.43;;;;;;;;;;6246472;23;20356;-92
2024/03/18 07:39:46;;;;;;;6.07;4.00;;;;;;;;;;6220516;23;20073;-92
2024/03/18 07:42:12;;;;;;;6.03;4.05;;;;;;;;;;6245650;23;20017;-92
2024/03/18 07:44:39;;;;;;;5.72;3.88;;;;;;;;;;6221040;23;20086;-92
2024/03/18 07:47:06;;;;;;;7.03;3.80;;;;;;;;;;6220551;23;20062;-92
2024/03/18 07:49:32;;;;;;;5.15;3.40;;;;;;;;;;6220569;23;20026;-92
2024/03/18 07:51:58;;;;;;;4.57;3.50;;;;;;;;;;6220751;23;20102;-93
2024/03/18 07:54:25;;;;;;;9.10;3.72;;;;;;;;;;6220429;23;20031;-92
2024/03/18 07:56:51;;;;;;;7.90;3.70;;;;;;;;;;6247396;23;20027;-92
2024/03/18 07:59:18;;;;;;;3.83;3.45;;;;;;;;;;6262950;23;20031;-92
2024/03/18 08:01:44;;;;;;;7.72;3.63;;;;;;;;;;6227558;23;20016;-92
2024/03/18 08:04:10;;;;;;;5.32;3.08;;;;;;;;;;6220551;23;20031;-92
2024/03/18 08:06:40;;;;;;;4.57;3.50;;;;;;;;;;6245690;23;20020;-91
2024/03/18 08:09:06;;;;;;;11.43;4.13;;;;;;;;;;6220855;23;20352;-92
2024/03/18 08:11:32;;;;;;;7.80;3.83;;;;;;;;;;6245669;23;20039;-92
2024/03/18 08:13:59;;;;;;;6.60;3.55;;;;;;;;;;6219824;23;20024;-92
2024/03/18 08:16:25;;;;;;;8.93;4.70;;;;;;;;;;6245493;23;20453;-92
2024/03/18 08:18:51;;;;;;;25.77;5.63;;;;;;;;;;6245392;23;20016;-91
2024/03/18 08:21:18;;;;;;;15.43;5.32;;;;;;;;;;6220584;23;20027;-92
2024/03/18 08:23:44;;;;;;;20.25;5.38;;;;;;;;;;6247351;23;20031;-91
2024/03/18 08:26:10;;;;;;;21.60;5.13;;;;;;;;;;6247598;23;20016;-92
2024/03/18 08:28:36;;;;;;;5.55;2.97;;;;;;;;;;6222242;23;20028;-91
2024/03/18 08:31:03;;;;;;;3.97;3.33;;;;;;;;;;6222239;23;20020;-91
2024/03/18 08:33:29;;;;;;;8.55;3.63;;;;;;;;;;6221882;23;20031;-91
2024/03/18 08:35:56;;;;;;;7.95;4.05;;;;;;;;;;6221752;23;20023;-90
2024/03/18 08:38:22;;;;;;;6.88;4.25;;;;;;;;;;6221956;23;20028;-91
2024/03/18 08:40:53;;;;;;;13.00;4.32;;;;;;;;;;6221860;23;20028;-91
2024/03/18 08:43:20;;;;;;;28.15;6.65;;;;;;;;;;6247536;23;20020;-91
2024/03/18 08:45:53;;;;;;;9.45;4.65;;;;;;;;;;6221833;23;20019;-90
2024/03/18 08:48:19;;;;;;;8.73;4.27;;;;;;;;;;6251198;23;20028;-89
2024/03/18 08:50:46;;;;;;;5.90;4.18;;;;;;;;;;6225141;23;20314;-89
2024/03/18 08:53:12;;;;;;;7.88;3.80;;;;;;;;;;6221632;23;20024;-88
2024/03/18 08:55:39;;;;;;;10.93;3.97;;;;;;;;;;6221802;23;20030;-88
2024/03/18 08:58:06;;;;;;;8.90;4.57;;;;;;;;;;6222370;23;20027;-88
2024/03/18 09:00:33;;;;;;;8.23;4.10;;;;;;;;;;6221682;23;20017;-89
2024/03/18 09:03:01;;;;;;;6.70;4.28;;;;;;;;;;6246888;23;20020;-90
2024/03/18 09:05:27;;;;;;;7.57;4.45;;;;;;;;;;6222096;23;20016;-89
2024/03/18 09:07:54;;;;;;;5.53;3.97;;;;;;;;;;6246909;23;20024;-89
2024/03/18 09:10:20;;;;;;;5.28;3.58;;;;;;;;;;6247322;23;20020;-89
2024/03/18 09:12:47;;;;;;;7.00;4.78;;;;;;;;;;6257536;23;20030;-89
2024/03/18 09:15:14;;;;;;;8.30;4.82;;;;;;;;;;6229057;23;20020;-90
2024/03/18 09:17:40;;;;;;;8.10;3.85;;;;;;;;;;6246977;23;20325;-89
2024/03/18 09:20:09;;;;;;;8.93;4.50;;;;;;;;;;6246502;23;20021;-88
2024/03/18 09:22:36;;;;;;;5.38;3.92;;;;;;;;;;6221262;23;20027;-88
2024/03/18 09:25:06;;;;;;;6.57;4.18;;;;;;;;;;6247004;23;20020;-88
2024/03/18 09:27:33;;;;;;;8.02;4.47;;;;;;;;;;6246605;23;20020;-89
2024/03/18 09:30:00;;;;;;;8.90;4.72;;;;;;;;;;6222380;23;20025;-89
2024/03/18 09:32:26;;;;;;;9.73;5.10;;;;;;;;;;6246518;23;20092;-89
2024/03/18 09:34:53;;;;;;;7.13;3.95;;;;;;;;;;6246043;23;20027;-88
2024/03/18 09:37:19;;;;;;;7.35;4.07;;;;;;;;;;6221210;23;20035;-88
2024/03/18 09:39:45;;;;;;;8.15;3.72;;;;;;;;;;6246374;23;20020;-88
2024/03/18 09:42:12;;;;;;;5.45;4.28;;;;;;;;;;6221085;23;20021;-88
2024/03/18 09:44:38;;;;;;;6.05;4.38;;;;;;;;;;6246599;23;20024;-88
2024/03/18 09:47:06;;;;;;;8.95;4.85;;;;;;;;;;6246335;23;20456;-88
2024/03/18 09:49:34;;;;;;;9.15;5.30;;;;;;;;;;6221128;23;20027;-88
2024/03/18 09:52:01;;;;;;;6.88;4.90;;;;;;;;;;6221123;23;20020;-88
2024/03/18 09:54:27;;;;;;;9.25;4.60;;;;;;;;;;6245919;23;20026;-91
2024/03/18 09:57:02;;;;;;;7.43;4.82;;;;;;;;;;6221091;23;20020;-89
2024/03/18 09:59:28;;;;;;;7.28;4.50;;;;;;;;;;6246597;23;20028;-89
2024/03/18 10:01:54;;;;;;;6.57;5.05;;;;;;;;;;6220831;23;20016;-89
2024/03/18 10:04:21;;;;;;;4.85;4.35;;;;;;;;;;6246280;23;20024;-87
2024/03/18 10:06:47;;;;;;;11.30;5.43;;;;;;;;;;6221282;23;20469;-89
2024/03/18 10:09:15;;;;;;;7.72;4.93;;;;;;;;;;6220817;23;20024;-89
2024/03/18 10:11:44;;;;;;;8.38;4.88;;;;;;;;;;6221014;23;20023;-90
2024/03/18 10:14:11;;;;;;;8.57;5.05;;;;;;;;;;6221119;23;20026;-89
2024/03/18 10:16:41;;;;;;;8.13;5.15;;;;;;;;;;6220844;23;20118;-89
2024/03/18 10:19:15;;;;;;;8.65;5.60;;;;;;;;;;6221258;23;20016;-89
2024/03/18 10:21:41;;;;;;;6.30;5.30;;;;;;;;;;6221033;23;20020;-89
2024/03/18 10:24:08;;;;;;;8.35;5.60;;;;;;;;;;6246198;23;20344;-87
2024/03/18 10:26:36;;;;;;;8.90;5.10;;;;;;;;;;6221530;23;20449;-90
2024/03/18 10:29:03;;;;;;;9.70;5.30;;;;;;;;;;6233782;23;20073;-88
2024/03/18 10:31:37;;;;;;;8.75;5.55;;;;;;;;;;6221958;23;20024;-88
2024/03/18 10:34:08;;;;;;;10.27;5.72;;;;;;;;;;6219578;23;20028;-90
2024/03/18 10:36:35;;;;;;;6.90;5.13;;;;;;;;;;6220971;23;20027;-88
2024/03/18 10:39:09;;;;;;;6.30;4.88;;;;;;;;;;6220281;23;20020;-89
2024/03/18 10:41:40;;;;;;;6.22;4.75;;;;;;;;;;6220692;23;20023;-89
2024/03/18 10:44:23;;;;;;;5.30;4.78;;;;;;;;;;6220398;23;20020;-89
2024/03/18 10:46:50;;;;;;;7.40;5.53;;;;;;;;;;6245714;23;20024;-89
2024/03/18 10:49:20;;;;;;;9.30;5.20;;;;;;;;;;6220929;23;20016;-89
2024/03/18 10:51:46;;;;;;;7.68;4.82;;;;;;;;;;6220688;23;20027;-88
2024/03/18 10:54:17;;;;;;;7.07;4.80;;;;;;;;;;6220838;23;20052;-90
2024/03/18 10:56:47;;;;;;;10.55;5.18;;;;;;;;;;6245264;23;20020;-87
2024/03/18 10:59:15;;;;;;;7.65;5.20;;;;;;;;;;6245622;23;20038;-89
2024/03/18 11:01:42;;;;;;;11.07;5.68;;;;;;;;;;6220646;23;20357;-88
2024/03/18 11:04:28;;;;;;;9.15;5.20;;;;;;;;;;6220366;23;20070;-88
2024/03/18 11:06:55;;;;;;;10.98;5.25;;;;;;;;;;6245922;23;20020;-89
2024/03/18 11:09:23;;;;;;;8.88;5.38;;;;;;;;;;6220195;23;20024;-88
2024/03/18 11:11:50;;;;;;;7.35;5.32;;;;;;;;;;6245626;23;20022;-88
2024/03/18 11:14:26;;;;;;;6.10;5.22;;;;;;;;;;6220180;23;20023;-88
2024/03/18 11:16:53;;;;;;;6.65;5.13;;;;;;;;;;6245711;23;20024;-88
2024/03/18 11:19:20;;;;;;;8.55;5.03;;;;;;;;;;6220410;23;20020;-89
2024/03/18 11:21:57;;;;;;;6.18;4.85;;;;;;;;;;6220274;23;20349;-91
2024/03/18 11:24:23;;;;;;;5.32;4.65;;;;;;;;;;6220414;23;20021;-89
2024/03/18 11:26:57;;;;;;;5.75;4.47;;;;;;;;;;6220269;23;20016;-88
2024/03/18 11:29:30;;;;;;;4.78;4.38;;;;;;;;;;6220451;23;20016;-88
2024/03/18 11:31:59;;;;;;;5.65;4.40;;;;;;;;;;6245628;23;20031;-88
2024/03/18 11:34:25;;;;;;;7.88;4.97;;;;;;;;;;6219681;23;20039;-87
2024/03/18 11:36:52;;;;;;;8.60;4.97;;;;;;;;;;6220072;23;20045;-88
2024/03/18 11:39:19;;;;;;;18.42;5.38;;;;;;;;;;6220191;23;20020;-88
2024/03/18 11:41:45;;;;;;;10.80;5.05;;;;;;;;;;6246168;23;20031;-88
2024/03/18 11:44:14;;;;;;;15.38;5.47;;;;;;;;;;6230825;23;20030;-88
2024/03/18 11:46:44;;;;;;;11.50;5.07;;;;;;;;;;6220268;23;20017;-89
2024/03/18 11:49:10;;;;;;;10.55;4.68;;;;;;;;;;6245425;23;20031;-87
2024/03/18 11:51:37;;;;;;;7.40;4.70;;;;;;;;;;6219951;23;20020;-89
2024/03/18 11:54:08;;;;;;;6.70;4.55;;;;;;;;;;6245342;23;20070;-88
2024/03/18 11:56:37;;;;;;;10.30;5.35;;;;;;;;;;6220132;23;20452;-88
2024/03/18 11:59:04;;;;;;;7.47;4.30;;;;;;;;;;6219727;23;20078;-89
2024/03/18 12:01:31;;;;;;;7.05;5.03;;;;;;;;;;6220249;23;20028;-88
2024/03/18 12:03:57;;;;;;;8.75;4.90;;;;;;;;;;6219908;23;20020;-88
2024/03/18 12:06:24;;;;;;;7.93;4.95;;;;;;;;;;6220254;23;20028;-88
2024/03/18 12:08:50;;;;;;;7.43;5.05;;;;;;;;;;6245326;23;20028;-88
2024/03/18 12:11:17;;;;;;;6.05;4.80;;;;;;;;;;6220305;23;20020;-88
2024/03/18 12:13:43;;;;;;;7.57;4.68;;;;;;;;;;6219768;23;20396;-87
2024/03/18 12:16:14;;;;;;;10.30;4.80;;;;;;;;;;6245086;23;20017;-87
2024/03/18 12:18:40;;;;;;;9.90;5.05;;;;;;;;;;6245341;23;20042;-88
2024/03/18 12:21:06;;;;;;;8.65;5.50;;;;;;;;;;6220178;23;20020;-89
2024/03/18 12:29:07;;;;;;;8.48;4.45;;;;;;;;;;6245709;23;20465;-88
2024/03/18 12:31:34;;;;;;;9.55;5.93;;;;;;;;;;6220157;23;20026;-88
2024/03/18 12:34:01;;;;;;;6.65;4.85;;;;;;;;;;6219906;23;20020;-88
2024/03/18 12:36:28;;;;;;;7.53;4.93;;;;;;;;;;6245192;23;20322;-88
2024/03/18 12:38:58;;;;;;;10.05;5.20;;;;;;;;;;6219643;23;20027;-88
2024/03/18 12:41:24;;;;;;;9.13;5.00;;;;;;;;;;6220512;23;20353;-87
2024/03/18 12:43:52;;;;;;;8.30;5.95;;;;;;;;;;6219957;23;20031;-88
2024/03/18 12:46:20;;;;;;;8.80;5.25;;;;;;;;;;6220078;23;20023;-89
2024/03/18 12:48:47;;;;;;;7.55;5.40;;;;;;;;;;6219635;23;20024;-88
2024/03/18 12:51:17;;;;;;;8.95;5.00;;;;;;;;;;6244823;23;20023;-87
2024/03/18 12:53:46;;;;;;;8.70;5.38;;;;;;;;;;6219279;23;20457;-88
2024/03/18 12:56:13;;;;;;;5.95;4.53;;;;;;;;;;6245128;23;20027;-89
2024/03/18 12:58:39;;;;;;;8.07;4.90;;;;;;;;;;6231272;23;20034;-89
2024/03/18 13:01:06;;;;;;;14.52;6.05;;;;;;;;;;6220381;23;20020;-88
2024/03/18 13:03:33;;;;;;;8.75;5.20;;;;;;;;;;6219568;23;20028;-88
2024/03/18 13:06:00;;;;;;;11.52;5.10;;;;;;;;;;6219448;23;20024;-89
2024/03/18 13:08:28;;;;;;;5.80;5.15;;;;;;;;;;6220048;23;20028;-88
2024/03/18 13:10:55;;;;;;;5.88;5.18;;;;;;;;;;6221461;23;20035;-87
2024/03/18 13:13:22;;;;;;;9.77;5.80;;;;;;;;;;6221437;23;20024;-88
2024/03/18 13:15:48;;;;;;;8.27;6.03;;;;;;;;;;6221954;23;20402;-88
2024/03/18 13:18:15;;;;;;;8.57;5.50;;;;;;;;;;6220990;23;20039;-88
2024/03/18 13:20:42;;;;;;;8.30;5.47;;;;;;;;;;6246636;23;20095;-88
2024/03/18 13:23:11;;;;;;;12.48;5.78;;;;;;;;;;6221122;23;20020;-88
2024/03/18 13:25:39;;;;;;;10.00;5.38;;;;;;;;;;6246969;23;20460;-89
2024/03/18 13:28:06;;;;;;;6.00;4.95;;;;;;;;;;6221506;23;20077;-88
2024/03/18 13:30:33;;;;;;;8.25;5.38;;;;;;;;;;6221560;23;20024;-89
2024/03/18 13:32:59;;;;;;;12.73;5.38;;;;;;;;;;6246272;23;20031;-88
2024/03/18 13:35:26;;;;;;;7.45;4.80;;;;;;;;;;6221102;23;20020;-88
2024/03/18 13:37:53;;;;;;;7.15;5.10;;;;;;;;;;6246420;23;20020;-88
2024/03/18 13:40:19;;;;;;;8.50;6.30;;;;;;;;;;6221232;23;20388;-88
2024/03/18 13:42:49;;;;;;;6.63;5.20;;;;;;;;;;6220869;23;20020;-88
2024/03/18 13:45:15;;;;;;;8.98;5.30;;;;;;;;;;6246233;23;20024;-88
2024/03/18 13:47:42;;;;;;;7.43;5.05;;;;;;;;;;6246066;23;20019;-88
2024/03/18 13:50:09;;;;;;;7.93;5.22;;;;;;;;;;6220717;23;20469;-88
2024/03/18 13:52:35;;;;;;;8.18;5.03;;;;;;;;;;6246182;23;20074;-88
2024/03/18 13:55:04;;;;;;;8.30;5.60;;;;;;;;;;6246054;23;20016;-88
2024/03/18 13:57:31;;;;;;;10.73;5.10;;;;;;;;;;6221323;23;20043;-89
2024/03/18 13:59:58;;;;;;;8.02;5.05;;;;;;;;;;6221017;23;20027;-88
2024/03/18 14:02:24;;;;;;;18.25;5.05;;;;;;;;;;6220975;23;20020;-88
2024/03/18 14:04:50;;;;;;;6.90;5.07;;;;;;;;;;6221138;23;20302;-88
2024/03/18 14:07:17;;;;;;;6.97;4.82;;;;;;;;;;6246199;23;20519;-88
2024/03/18 14:09:44;;;;;;;12.07;5.07;;;;;;;;;;6246098;23;20539;-89
2024/03/18 14:12:15;;;;;;;6.07;4.82;;;;;;;;;;6223463;23;20453;-89
2024/03/18 14:14:41;;;;;;;9.88;4.38;;;;;;;;;;6229885;23;20030;-88
2024/03/18 14:17:11;;;;;;;6.07;4.13;;;;;;;;;;6246239;23;20020;-88
2024/03/18 14:19:37;;;;;;;8.07;4.82;;;;;;;;;;6219324;23;20456;-88
2024/03/18 14:22:03;;;;;;;4.30;3.90;;;;;;;;;;6220085;23;20067;-88
2024/03/18 14:24:32;;;;;;;7.68;4.95;;;;;;;;;;6219340;23;20047;-88
2024/03/18 14:26:59;;;;;;;7.78;4.72;;;;;;;;;;6244416;23;20027;-88
2024/03/18 14:29:26;;;;;;;7.00;4.63;;;;;;;;;;6220234;23;20020;-88
2024/03/18 14:31:52;;;;;;;5.93;4.40;;;;;;;;;;6220640;23;20020;-88
2024/03/18 14:34:18;;;;;;;6.95;5.00;;;;;;;;;;6220445;23;20326;-89
2024/03/18 14:36:44;;;;;;;6.90;4.00;;;;;;;;;;6220717;23;20024;-89
2024/03/18 14:39:11;;;;;;;5.50;4.60;;;;;;;;;;6245724;23;20322;-88
2024/03/18 14:41:38;;;;;;;6.07;4.45;;;;;;;;;;6220339;23;20024;-88
2024/03/18 14:44:05;;;;;;;6.18;5.13;;;;;;;;;;6220332;23;20031;-89
2024/03/18 14:46:31;;;;;;;7.57;4.55;;;;;;;;;;6220641;23;20050;-88
2024/03/18 14:48:59;;;;;;;8.80;4.82;;;;;;;;;;6220446;23;20024;-88